Time;durP1;ratioP1;P1;durP2;ratioP2;P2;SDS_P1;SDS_P2;PMS_P1;PMS_P2;Temp;Humidity;BMP_temperature;BMP_pressure;BME280_temperature;BME280_humidity;BME280_pressure;Samples;Min_cycle;Max_cycle;Signal;HPM_P1;HPM_P2
2023/09/30 00:00:45;;;;;;;21.95;4.75;;;11.50;99.90;;;;;;5047276;28;20060;-74
2023/09/30 00:03:11;;;;;;;25.35;5.00;;;11.50;99.90;;;;;;5017091;28;20056;-71
2023/09/30 00:05:38;;;;;;;23.13;5.28;;;11.50;99.90;;;;;;5034279;28;20052;-72
2023/09/30 00:08:04;;;;;;;22.35;5.25;;;11.50;99.90;;;;;;5010337;28;20042;-74
2023/09/30 00:10:31;;;;;;;20.90;5.15;;;11.60;99.90;;;;;;5031183;28;20067;-72
2023/09/30 00:12:58;;;;;;;22.80;4.90;;;11.60;99.90;;;;;;5018979;28;20057;-73
2023/09/30 00:15:25;;;;;;;22.20;4.70;;;11.60;99.90;;;;;;5056291;28;20045;-73
2023/09/30 00:17:51;;;;;;;28.55;5.43;;;11.60;99.90;;;;;;5023787;28;20056;-73
2023/09/30 00:20:17;;;;;;;21.63;5.07;;;11.60;99.90;;;;;;5043333;28;216605;-72
2023/09/30 00:22:43;;;;;;;19.88;4.68;;;11.70;99.90;;;;;;5028389;28;20058;-72
2023/09/30 00:25:10;;;;;;;22.60;4.65;;;11.60;99.90;;;;;;5002214;28;241143;-73
2023/09/30 00:27:37;;;;;;;21.90;4.85;;;11.60;99.90;;;;;;5052199;28;20057;-72
2023/09/30 00:30:03;;;;;;;21.50;4.78;;;11.60;99.90;;;;;;4984635;28;128241;-73
2023/09/30 00:32:29;;;;;;;20.52;4.88;;;11.60;99.90;;;;;;5052893;28;20044;-72
2023/09/30 00:34:55;;;;;;;24.80;5.30;;;11.60;99.90;;;;;;5003133;28;78939;-73
2023/09/30 00:37:22;;;;;;;21.92;4.43;;;11.60;99.90;;;;;;5055238;28;20597;-73
2023/09/30 00:39:49;;;;;;;23.30;4.68;;;11.60;99.90;;;;;;5020695;28;35835;-72
2023/09/30 00:42:15;;;;;;;17.38;4.05;;;11.50;99.90;;;;;;5056906;28;20057;-74
2023/09/30 00:44:41;;;;;;;23.35;4.57;;;11.60;99.90;;;;;;5005507;28;20052;-72
2023/09/30 00:47:08;;;;;;;16.67;4.35;;;11.60;99.90;;;;;;5062293;28;20086;-73
2023/09/30 00:49:34;;;;;;;25.15;4.70;;;11.60;99.90;;;;;;5015875;28;88455;-73
2023/09/30 00:52:02;;;;;;;18.25;4.53;;;11.50;99.90;;;;;;5058889;28;20056;-73
2023/09/30 00:54:30;;;;;;;23.42;5.55;;;11.60;99.90;;;;;;5000125;28;173169;-72
2023/09/30 00:56:57;;;;;;;20.15;5.03;;;11.60;99.90;;;;;;5057629;28;20052;-72
2023/09/30 00:59:26;;;;;;;22.33;5.60;;;11.60;99.90;;;;;;5016425;28;186811;-73
2023/09/30 01:01:55;;;;;;;24.50;5.40;;;11.50;99.90;;;;;;5055219;28;20535;-73
2023/09/30 01:04:21;;;;;;;24.33;5.30;;;11.60;99.90;;;;;;5016422;28;20044;-72
2023/09/30 01:06:47;;;;;;;23.55;5.40;;;11.60;99.90;;;;;;5055404;28;20075;-72
2023/09/30 01:09:14;;;;;;;23.50;5.72;;;11.60;99.90;;;;;;5019389;28;47038;-73
2023/09/30 01:11:40;;;;;;;21.75;5.28;;;11.70;99.90;;;;;;5063711;28;20060;-72
2023/09/30 01:14:31;;;;;;;27.58;6.50;;;11.70;99.90;;;;;;5013495;28;204220;-72
2023/09/30 01:16:57;;;;;;;18.23;5.43;;;11.70;99.90;;;;;;5050832;28;20041;-73
2023/09/30 01:19:25;;;;;;;24.00;5.57;;;11.60;99.90;;;;;;5016620;28;133477;-71
2023/09/30 01:21:58;;;;;;;22.23;5.03;;;11.60;99.90;;;;;;5059962;28;20056;-73
2023/09/30 01:24:31;;;;;;;20.45;5.45;;;11.60;99.90;;;;;;5001250;28;20063;-72
2023/09/30 01:26:57;;;;;;;32.60;5.70;;;11.60;99.90;;;;;;5059065;28;20052;-72
2023/09/30 01:29:26;;;;;;;23.98;5.75;;;11.60;99.90;;;;;;5003282;28;138780;-72
2023/09/30 01:31:52;;;;;;;19.38;5.13;;;11.60;99.90;;;;;;5055824;28;20049;-72
2023/09/30 01:34:18;;;;;;;20.02;5.28;;;11.60;99.90;;;;;;4999897;28;20137;-72
2023/09/30 01:36:45;;;;;;;21.23;5.38;;;11.70;99.90;;;;;;5053044;28;20055;-72
2023/09/30 01:39:11;;;;;;;18.63;5.22;;;11.70;99.90;;;;;;5015708;28;70615;-73
2023/09/30 01:41:38;;;;;;;22.42;5.20;;;11.80;99.90;;;;;;5060531;28;20535;-73
2023/09/30 01:44:05;;;;;;;22.05;5.55;;;11.80;99.90;;;;;;5008747;28;80055;-72
2023/09/30 01:46:31;;;;;;;19.63;4.22;;;11.80;99.90;;;;;;5055172;28;20048;-72
2023/09/30 01:48:57;;;;;;;23.90;5.30;;;11.80;99.90;;;;;;5020635;28;20044;-72
2023/09/30 01:51:23;;;;;;;21.70;5.00;;;11.90;99.90;;;;;;5054053;28;20063;-73
2023/09/30 01:53:50;;;;;;;19.13;4.75;;;11.90;99.90;;;;;;5001330;28;136110;-73
2023/09/30 01:56:16;;;;;;;22.92;5.20;;;12.00;99.90;;;;;;5052120;28;20534;-72
2023/09/30 01:58:43;;;;;;;19.02;4.85;;;11.90;99.90;;;;;;5018356;28;20060;-72
2023/09/30 02:01:09;;;;;;;19.45;4.93;;;11.90;99.90;;;;;;5054402;28;20064;-72
2023/09/30 02:03:36;;;;;;;21.40;5.00;;;11.90;99.90;;;;;;5020579;28;20103;-72
2023/09/30 02:06:03;;;;;;;19.48;5.28;;;11.80;99.90;;;;;;5032202;28;20079;-72
2023/09/30 02:08:29;;;;;;;22.90;5.07;;;11.80;99.90;;;;;;5020776;28;20067;-71
2023/09/30 02:10:55;;;;;;;16.50;5.57;;;11.70;99.90;;;;;;5050534;28;20060;-72
2023/09/30 02:13:21;;;;;;;22.55;5.13;;;11.70;99.90;;;;;;5015699;28;187200;-72
2023/09/30 02:15:48;;;;;;;18.10;5.78;;;11.70;99.90;;;;;;5062240;28;20099;-72
2023/09/30 02:18:14;;;;;;;23.73;6.07;;;11.80;99.90;;;;;;5014450;28;156244;-72
2023/09/30 02:20:40;;;;;;;20.25;5.60;;;11.80;99.90;;;;;;5040974;28;20053;-72
2023/09/30 02:23:12;;;;;;;20.75;5.75;;;11.90;99.90;;;;;;5011599;28;220269;-72
2023/09/30 02:25:43;;;;;;;27.20;5.55;;;11.90;99.90;;;;;;5059274;28;20055;-71
2023/09/30 02:28:09;;;;;;;21.63;6.40;;;11.90;99.90;;;;;;5019859;28;20040;-73
2023/09/30 02:30:36;;;;;;;26.23;5.93;;;12.00;99.90;;;;;;5034808;28;20040;-73
2023/09/30 02:33:04;;;;;;;21.70;6.18;;;12.00;99.90;;;;;;5026870;28;20057;-72
2023/09/30 02:35:30;;;;;;;21.42;6.22;;;12.00;99.90;;;;;;5034278;28;20064;-72
2023/09/30 02:37:56;;;;;;;20.42;6.07;;;12.10;99.90;;;;;;5034290;28;20060;-73
2023/09/30 02:40:24;;;;;;;23.95;6.28;;;12.10;99.90;;;;;;5042047;28;142536;-72
2023/09/30 02:42:51;;;;;;;21.33;5.68;;;12.10;99.90;;;;;;5016311;28;20057;-72
2023/09/30 02:45:17;;;;;;;23.88;6.03;;;12.20;99.90;;;;;;5045858;28;20064;-73
2023/09/30 02:47:44;;;;;;;24.90;5.93;;;12.20;99.90;;;;;;5039865;28;20053;-72
2023/09/30 02:50:13;;;;;;;23.15;6.03;;;12.10;99.90;;;;;;5028226;28;20376;-72
2023/09/30 02:52:42;;;;;;;15.80;5.22;;;12.20;99.90;;;;;;5061498;28;20055;-71
2023/09/30 02:55:12;;;;;;;23.45;5.90;;;12.20;99.90;;;;;;4996627;28;20049;-72
2023/09/30 02:57:39;;;;;;;25.63;6.15;;;12.20;99.90;;;;;;5061748;28;20499;-72
2023/09/30 03:00:20;;;;;;;21.88;6.07;;;12.20;99.90;;;;;;4997404;28;20044;-72
2023/09/30 03:02:46;;;;;;;23.17;6.30;;;12.20;99.90;;;;;;5011438;28;20053;-69
2023/09/30 03:05:13;;;;;;;19.90;5.68;;;12.20;99.90;;;;;;5011502;28;20675;-72
2023/09/30 03:07:41;;;;;;;20.70;6.28;;;12.20;99.90;;;;;;5059633;28;20056;-72
2023/09/30 03:10:08;;;;;;;25.00;6.63;;;12.20;99.90;;;;;;5027585;28;20043;-71
2023/09/30 03:12:35;;;;;;;24.85;6.15;;;12.20;99.90;;;;;;5056725;28;20590;-72
2023/09/30 03:15:04;;;;;;;23.98;6.97;;;12.20;99.90;;;;;;5000449;28;180608;-71
2023/09/30 03:17:32;;;;;;;25.58;6.78;;;12.20;99.90;;;;;;5064183;28;20859;-73
2023/09/30 03:19:58;;;;;;;21.20;6.30;;;12.20;99.90;;;;;;4999636;28;20499;-72
2023/09/30 03:22:27;;;;;;;23.48;7.15;;;12.10;99.90;;;;;;5057950;28;20060;-73
2023/09/30 03:24:57;;;;;;;24.13;6.85;;;12.20;99.90;;;;;;5033012;28;20399;-72
2023/09/30 03:27:23;;;;;;;22.25;6.63;;;12.20;99.90;;;;;;5058016;28;20048;-73
2023/09/30 03:29:49;;;;;;;24.25;6.70;;;12.20;99.90;;;;;;5023559;28;20530;-72
2023/09/30 03:32:15;;;;;;;23.08;7.03;;;12.20;99.90;;;;;;5057452;28;20064;-72
2023/09/30 03:34:44;;;;;;;24.25;7.15;;;12.30;99.90;;;;;;5020433;28;20052;-72
2023/09/30 03:37:10;;;;;;;26.48;6.75;;;12.30;99.90;;;;;;5061368;28;20063;-72
2023/09/30 03:39:37;;;;;;;23.08;6.85;;;12.30;99.90;;;;;;4991658;28;20056;-72
2023/09/30 03:42:03;;;;;;;24.10;7.05;;;12.30;99.90;;;;;;5052971;28;20434;-72
2023/09/30 03:44:29;;;;;;;17.75;6.20;;;12.20;99.90;;;;;;5015301;28;20712;-72
2023/09/30 03:46:56;;;;;;;23.63;6.60;;;12.20;99.90;;;;;;5057476;28;20057;-73
2023/09/30 03:49:23;;;;;;;22.92;6.65;;;12.10;99.90;;;;;;4995755;28;20053;-72
2023/09/30 03:51:50;;;;;;;25.23;6.80;;;12.10;99.90;;;;;;5034290;28;20557;-71
2023/09/30 03:54:17;;;;;;;26.98;7.45;;;12.10;99.90;;;;;;5000667;28;124241;-71
2023/09/30 03:56:46;;;;;;;24.50;7.05;;;12.00;99.90;;;;;;5055164;28;20052;-72
2023/09/30 03:59:12;;;;;;;24.63;6.72;;;12.00;99.90;;;;;;5009975;28;20063;-72
2023/09/30 04:01:40;;;;;;;20.88;7.45;;;12.00;99.90;;;;;;5060677;28;20498;-72
2023/09/30 04:04:08;;;;;;;33.63;7.50;;;11.90;99.90;;;;;;5018371;28;20056;-72
2023/09/30 04:06:38;;;;;;;24.35;7.38;;;11.90;99.90;;;;;;5056859;28;20450;-72
2023/09/30 04:09:10;;;;;;;20.90;6.60;;;11.90;99.90;;;;;;5013556;28;20053;-72
2023/09/30 04:11:37;;;;;;;23.42;7.05;;;11.90;99.90;;;;;;5052232;28;20067;-72
2023/09/30 04:14:04;;;;;;;26.58;6.80;;;11.80;99.90;;;;;;5004759;28;20048;-72
2023/09/30 04:16:31;;;;;;;25.20;7.32;;;11.80;99.90;;;;;;5056120;28;20817;-72
2023/09/30 04:18:57;;;;;;;19.90;6.35;;;11.80;99.90;;;;;;5019863;28;20037;-71
2023/09/30 04:21:23;;;;;;;24.10;7.75;;;11.80;99.90;;;;;;5058525;28;20055;-71
2023/09/30 04:23:50;;;;;;;22.35;6.60;;;11.80;99.90;;;;;;5019816;28;20052;-72
2023/09/30 04:26:16;;;;;;;20.17;6.63;;;11.80;99.90;;;;;;5061702;28;20055;-72
2023/09/30 04:28:43;;;;;;;21.70;7.05;;;11.80;99.90;;;;;;5010526;28;20041;-72
2023/09/30 04:31:09;;;;;;;18.63;6.45;;;11.80;99.90;;;;;;5042078;28;20423;-72
2023/09/30 04:33:36;;;;;;;21.85;6.20;;;11.70;99.90;;;;;;5013810;28;20048;-71
2023/09/30 04:36:03;;;;;;;21.13;6.30;;;11.70;99.90;;;;;;5054578;28;20048;-72
2023/09/30 04:38:30;;;;;;;24.08;6.72;;;11.70;99.90;;;;;;5020320;28;20056;-72
2023/09/30 04:40:58;;;;;;;23.90;6.70;;;11.60;99.90;;;;;;5050912;28;20055;-71
2023/09/30 04:43:24;;;;;;;21.10;6.40;;;11.70;99.90;;;;;;5017417;28;20050;-72
2023/09/30 04:45:53;;;;;;;26.95;6.68;;;11.60;99.90;;;;;;5051168;28;20060;-71
2023/09/30 04:48:19;;;;;;;19.83;6.75;;;11.60;99.90;;;;;;5018000;28;20052;-72
2023/09/30 04:50:45;;;;;;;21.27;6.63;;;11.60;99.90;;;;;;5040711;28;20057;-70
2023/09/30 04:53:12;;;;;;;18.42;6.35;;;11.60;99.90;;;;;;5005116;28;98305;-72
2023/09/30 04:55:39;;;;;;;22.55;6.65;;;11.60;99.90;;;;;;5050676;28;20056;-72
2023/09/30 04:58:05;;;;;;;24.00;6.65;;;11.60;99.90;;;;;;5021374;28;20057;-72
2023/09/30 05:00:31;;;;;;;23.88;7.03;;;11.60;99.90;;;;;;5037438;28;20065;-72
2023/09/30 05:02:59;;;;;;;20.85;6.32;;;11.60;99.90;;;;;;5022631;28;20040;-71
2023/09/30 05:05:25;;;;;;;22.17;6.47;;;11.60;99.90;;;;;;5060650;28;20052;-71
2023/09/30 05:07:51;;;;;;;25.10;6.97;;;11.60;99.90;;;;;;5017797;28;190430;-72
2023/09/30 05:10:17;;;;;;;18.85;6.85;;;11.60;99.90;;;;;;5036881;28;20068;-72
2023/09/30 05:12:46;;;;;;;19.25;6.75;;;11.50;99.90;;;;;;5046438;28;20052;-72
2023/09/30 05:15:16;;;;;;;23.17;7.45;;;11.50;99.90;;;;;;5025404;28;20053;-71
2023/09/30 05:17:45;;;;;;;24.25;7.28;;;11.50;99.90;;;;;;5047676;28;20056;-70
2023/09/30 05:20:12;;;;;;;20.60;7.22;;;11.50;99.90;;;;;;5022607;28;20414;-72
2023/09/30 05:22:40;;;;;;;25.35;7.70;;;11.50;99.90;;;;;;5058316;28;20059;-72
2023/09/30 05:25:07;;;;;;;19.90;7.13;;;11.40;99.90;;;;;;5005162;28;20461;-71
2023/09/30 05:27:33;;;;;;;20.60;7.22;;;11.40;99.90;;;;;;5063487;28;20056;-72
2023/09/30 05:29:59;;;;;;;26.90;7.80;;;11.40;99.90;;;;;;5006113;28;20515;-72
2023/09/30 05:32:27;;;;;;;22.35;7.47;;;11.40;99.90;;;;;;5061673;28;20056;-72
2023/09/30 05:34:54;;;;;;;22.58;7.93;;;11.30;99.90;;;;;;5020924;28;20063;-73
2023/09/30 05:37:23;;;;;;;22.75;7.82;;;11.40;99.90;;;;;;5060315;28;20048;-72
2023/09/30 05:39:49;;;;;;;25.08;8.50;;;11.40;99.90;;;;;;5008455;28;20045;-72
2023/09/30 05:42:16;;;;;;;26.40;8.32;;;11.30;99.90;;;;;;5056967;28;20049;-73
2023/09/30 05:44:42;;;;;;;21.10;7.90;;;11.30;99.90;;;;;;5007050;28;20523;-73
2023/09/30 05:47:09;;;;;;;23.48;8.48;;;11.30;99.90;;;;;;5057166;28;20052;-72
2023/09/30 05:49:36;;;;;;;30.00;9.15;;;11.30;99.90;;;;;;5007736;28;20055;-72
2023/09/30 05:52:03;;;;;;;22.27;8.57;;;11.30;99.90;;;;;;5054523;28;20053;-72
2023/09/30 05:54:30;;;;;;;21.48;8.25;;;11.30;99.90;;;;;;4987128;28;163073;-72
2023/09/30 05:56:56;;;;;;;23.75;8.05;;;11.30;99.90;;;;;;5057073;28;20052;-72
2023/09/30 05:59:25;;;;;;;25.45;8.57;;;11.30;99.90;;;;;;4993801;28;20142;-72
2023/09/30 06:01:51;;;;;;;26.30;8.60;;;11.30;99.90;;;;;;5056711;28;20061;-71
2023/09/30 06:04:17;;;;;;;21.85;8.90;;;11.30;99.90;;;;;;5003440;28;20614;-72
2023/09/30 06:06:43;;;;;;;22.40;8.27;;;11.30;99.90;;;;;;5057502;28;20067;-72
2023/09/30 06:09:09;;;;;;;21.88;8.85;;;11.30;99.90;;;;;;5023213;28;20102;-71
2023/09/30 06:11:36;;;;;;;25.80;10.10;;;11.30;99.90;;;;;;5057340;28;20487;-73
2023/09/30 06:14:02;;;;;;;25.38;9.10;;;11.30;99.90;;;;;;5007055;28;20041;-72
2023/09/30 06:16:29;;;;;;;22.60;9.10;;;11.30;99.90;;;;;;5046266;28;20061;-71
2023/09/30 06:18:55;;;;;;;30.48;10.13;;;11.40;99.90;;;;;;5011978;28;20049;-71
2023/09/30 06:21:21;;;;;;;26.20;9.57;;;11.30;99.90;;;;;;5053990;28;20048;-73
2023/09/30 06:23:48;;;;;;;27.40;10.07;;;11.30;99.90;;;;;;5018372;28;44777;-71
2023/09/30 06:26:17;;;;;;;25.88;10.18;;;11.40;99.90;;;;;;5052279;28;20060;-73
2023/09/30 06:28:44;;;;;;;27.23;10.95;;;11.40;99.90;;;;;;5008674;28;162020;-72
2023/09/30 06:31:11;;;;;;;24.27;9.93;;;11.50;99.90;;;;;;5051509;28;20057;-72
2023/09/30 06:33:39;;;;;;;22.23;9.70;;;11.50;99.90;;;;;;5017920;28;46057;-73
2023/09/30 06:36:16;;;;;;;29.10;10.32;;;11.50;99.90;;;;;;5029777;28;20056;-71
2023/09/30 06:38:44;;;;;;;23.38;10.77;;;11.60;99.90;;;;;;5011707;28;108971;-72
2023/09/30 06:41:18;;;;;;;26.00;11.00;;;11.70;99.90;;;;;;5050251;28;20052;-73
2023/09/30 06:43:45;;;;;;;26.98;10.65;;;11.70;99.90;;;;;;5009273;28;180561;-72
2023/09/30 06:46:11;;;;;;;25.33;10.30;;;11.80;99.90;;;;;;5046159;28;20071;-72
2023/09/30 06:48:37;;;;;;;23.80;10.98;;;11.80;99.90;;;;;;5010421;28;110707;-72
2023/09/30 06:51:03;;;;;;;23.63;10.93;;;11.90;99.90;;;;;;5050288;28;20056;-73
2023/09/30 06:53:29;;;;;;;24.95;11.02;;;12.00;99.90;;;;;;4994306;28;181377;-72
2023/09/30 06:55:55;;;;;;;22.42;10.18;;;11.90;99.90;;;;;;5056343;28;20052;-72
2023/09/30 06:58:22;;;;;;;22.63;10.63;;;12.10;99.90;;;;;;5010873;28;232879;-72
2023/09/30 07:00:50;;;;;;;23.70;10.95;;;12.10;99.90;;;;;;5044143;28;20053;-73
2023/09/30 07:03:19;;;;;;;25.23;11.60;;;12.20;99.90;;;;;;5010048;28;131632;-73
2023/09/30 07:05:49;;;;;;;21.33;10.65;;;12.30;99.90;;;;;;5040951;28;20069;-72
2023/09/30 07:08:17;;;;;;;22.80;10.47;;;12.30;99.90;;;;;;5017064;28;23310;-72
2023/09/30 07:10:45;;;;;;;25.05;10.88;;;12.30;99.90;;;;;;5037928;28;20071;-72
2023/09/30 07:13:12;;;;;;;20.05;11.00;;;12.40;99.90;;;;;;5017021;28;133429;-72
2023/09/30 07:15:38;;;;;;;24.50;11.05;;;12.50;99.90;;;;;;5059971;28;20755;-72
2023/09/30 07:18:04;;;;;;;25.63;10.82;;;12.60;99.90;;;;;;5015014;28;156171;-70
2023/09/30 07:20:32;;;;;;;23.42;10.63;;;12.60;99.90;;;;;;5055898;28;20056;-72
2023/09/30 07:23:03;;;;;;;19.73;9.63;;;12.70;99.90;;;;;;5027825;28;20613;-72
2023/09/30 07:25:31;;;;;;;26.58;11.00;;;12.80;99.90;;;;;;5027573;28;20048;-72
2023/09/30 07:27:58;;;;;;;22.17;10.52;;;12.80;99.90;;;;;;5030914;28;20052;-73
2023/09/30 07:30:25;;;;;;;23.35;10.20;;;12.90;99.90;;;;;;5042966;28;95293;-72
2023/09/30 07:32:51;;;;;;;21.15;10.43;;;12.90;99.90;;;;;;5032511;28;20056;-72
2023/09/30 07:35:18;;;;;;;26.52;10.48;;;13.00;99.90;;;;;;5040107;28;96343;-73
2023/09/30 07:37:44;;;;;;;22.88;10.52;;;13.00;99.90;;;;;;5044907;28;20060;-72
2023/09/30 07:40:11;;;;;;;19.45;9.43;;;13.10;99.90;;;;;;5025631;28;214002;-72
2023/09/30 07:42:37;;;;;;;20.15;10.10;;;13.20;99.90;;;;;;5054958;28;20052;-72
2023/09/30 07:45:04;;;;;;;21.77;10.13;;;13.20;99.90;;;;;;5027306;28;101502;-71
2023/09/30 07:47:33;;;;;;;23.50;10.18;;;13.30;99.90;;;;;;5057329;28;20056;-72
2023/09/30 07:50:06;;;;;;;20.52;9.43;;;13.30;99.90;;;;;;4996227;28;72569;-73
2023/09/30 07:52:32;;;;;;;20.23;9.65;;;13.30;99.90;;;;;;5055149;28;20056;-71
2023/09/30 07:54:58;;;;;;;22.42;9.80;;;13.50;99.90;;;;;;4977380;28;220600;-71
2023/09/30 07:57:24;;;;;;;24.13;9.65;;;13.50;99.90;;;;;;5055894;28;20422;-72
2023/09/30 07:59:50;;;;;;;21.85;9.48;;;13.60;99.90;;;;;;5014232;28;116475;-72
2023/09/30 08:02:17;;;;;;;21.85;9.88;;;13.70;99.90;;;;;;5057456;28;20062;-72
2023/09/30 08:04:44;;;;;;;23.30;10.23;;;13.80;99.90;;;;;;5016252;28;94243;-72
2023/09/30 08:07:10;;;;;;;18.42;9.38;;;13.80;99.90;;;;;;5057465;28;20697;-72
2023/09/30 08:09:37;;;;;;;23.98;10.18;;;13.90;99.90;;;;;;5013185;28;82455;-72
2023/09/30 08:12:04;;;;;;;22.05;9.85;;;14.00;99.90;;;;;;5061948;28;20060;-72
2023/09/30 08:14:30;;;;;;;20.25;9.13;;;14.10;99.90;;;;;;4997778;28;144896;-72
2023/09/30 08:16:56;;;;;;;24.50;9.60;;;14.20;99.90;;;;;;5062555;28;20064;-72
2023/09/30 08:19:22;;;;;;;23.67;9.38;;;14.30;99.90;;;;;;5015755;28;20056;-72
2023/09/30 08:21:49;;;;;;;22.77;9.75;;;14.40;99.90;;;;;;5052007;28;20049;-72
2023/09/30 08:24:15;;;;;;;23.13;9.15;;;14.50;99.90;;;;;;4994932;28;20049;-73
2023/09/30 08:26:41;;;;;;;20.85;9.13;;;14.60;99.90;;;;;;5056762;28;20491;-72
2023/09/30 08:29:07;;;;;;;21.65;9.10;;;14.60;99.90;;;;;;5008576;28;157935;-72
2023/09/30 08:31:33;;;;;;;20.13;8.75;;;14.80;99.90;;;;;;5060626;28;20044;-72
2023/09/30 08:33:59;;;;;;;20.70;8.68;;;14.90;99.90;;;;;;5010871;28;121395;-72
2023/09/30 08:36:26;;;;;;;20.75;9.00;;;14.90;99.90;;;;;;5045966;28;20056;-73
2023/09/30 08:38:52;;;;;;;24.15;8.60;;;15.10;99.90;;;;;;5008591;28;205801;-71
2023/09/30 08:41:31;;;;;;;20.65;8.18;;;15.20;99.90;;;;;;5044850;28;20056;-73
2023/09/30 08:44:01;;;;;;;21.63;7.82;;;15.20;99.90;;;;;;5016975;28;114641;-71
2023/09/30 08:46:33;;;;;;;20.00;7.57;;;15.40;99.90;;;;;;5059217;28;20422;-72
2023/09/30 08:49:04;;;;;;;20.25;7.68;;;15.50;99.90;;;;;;5013565;28;76277;-72
2023/09/30 08:51:31;;;;;;;20.77;7.47;;;15.50;99.90;;;;;;5055147;28;20729;-72
2023/09/30 08:53:58;;;;;;;19.38;7.00;;;15.60;99.90;;;;;;5000237;28;146920;-72
2023/09/30 08:56:27;;;;;;;17.33;7.75;;;15.70;99.90;;;;;;5029105;28;21632;-72
2023/09/30 08:58:58;;;;;;;16.77;7.10;;;15.80;99.90;;;;;;5016108;28;79668;-71
2023/09/30 09:01:28;;;;;;;19.63;6.95;;;15.90;99.90;;;;;;5053409;28;20407;-72
2023/09/30 09:03:55;;;;;;;18.63;7.05;;;16.30;99.90;;;;;;5018109;28;90152;-73
2023/09/30 09:06:23;;;;;;;19.10;6.72;;;17.10;99.90;;;;;;5057258;28;20056;-72
2023/09/30 09:08:50;;;;;;;16.08;6.13;;;17.70;99.90;;;;;;5017153;28;20059;-72
2023/09/30 09:11:17;;;;;;;17.70;6.10;;;18.20;99.90;;;;;;5058191;28;20422;-73
2023/09/30 09:13:55;;;;;;;17.70;6.18;;;18.80;99.90;;;;;;4991082;28;148205;-73
2023/09/30 09:16:23;;;;;;;14.18;5.55;;;19.40;99.90;;;;;;5050761;28;20060;-72
2023/09/30 09:18:53;;;;;;;16.23;5.32;;;19.80;99.90;;;;;;5004913;28;209100;-72
2023/09/30 09:21:22;;;;;;;17.20;5.20;;;20.10;99.90;;;;;;5059625;28;20434;-73
2023/09/30 09:23:50;;;;;;;13.98;4.88;;;20.10;99.90;;;;;;5018885;28;119098;-73
2023/09/30 09:26:27;;;;;;;18.42;5.68;;;20.40;99.90;;;;;;5061877;28;20040;-73
2023/09/30 09:29:00;;;;;;;14.77;5.15;;;20.70;99.90;;;;;;5007097;28;103117;-72
2023/09/30 09:31:28;;;;;;;16.83;5.13;;;21.00;99.90;;;;;;5056600;28;20116;-74
2023/09/30 09:33:55;;;;;;;17.02;5.30;;;21.30;99.90;;;;;;5008044;28;34997;-71
2023/09/30 09:36:37;;;;;;;12.25;4.30;;;21.70;99.90;;;;;;5053787;28;20041;-71
2023/09/30 09:39:03;;;;;;;13.63;4.70;;;21.90;99.90;;;;;;5009107;28;145594;-73
2023/09/30 09:41:30;;;;;;;12.05;4.05;;;22.00;99.90;;;;;;5058366;28;20055;-72
2023/09/30 09:43:59;;;;;;;15.77;4.22;;;22.20;99.90;;;;;;5011895;28;126479;-73
2023/09/30 09:46:27;;;;;;;14.82;4.03;;;22.50;99.90;;;;;;5055385;28;20048;-72
2023/09/30 09:48:54;;;;;;;15.25;4.20;;;23.00;99.90;;;;;;5009417;28;136831;-73
2023/09/30 09:51:21;;;;;;;13.68;3.88;;;23.20;99.90;;;;;;5059652;28;20407;-72
2023/09/30 09:53:49;;;;;;;13.88;3.50;;;23.60;99.90;;;;;;4999732;28;156577;-73
2023/09/30 09:56:16;;;;;;;12.48;3.13;;;23.50;99.90;;;;;;5060319;28;20049;-73
2023/09/30 09:58:43;;;;;;;16.52;3.00;;;22.60;99.90;;;;;;5013771;28;28608;-73
2023/09/30 10:01:10;;;;;;;15.32;3.35;;;21.50;99.90;;;;;;5052580;28;20060;-73
2023/09/30 10:03:39;;;;;;;13.65;3.05;;;20.90;99.90;;;;;;5013034;28;190969;-73
2023/09/30 10:06:06;;;;;;;13.40;2.83;;;20.70;99.90;;;;;;5069548;28;20418;-74
2023/09/30 10:08:36;;;;;;;11.05;2.50;;;21.00;99.90;;;;;;5010505;28;183095;-73
2023/09/30 10:11:02;;;;;;;12.18;2.95;;;21.70;99.90;;;;;;5044027;28;20060;-72
2023/09/30 10:13:50;;;;;;;14.85;3.10;;;21.80;99.90;;;;;;5011105;28;76960;-72
2023/09/30 10:16:35;;;;;;;12.90;2.53;;;21.90;99.90;;;;;;5054531;28;20045;-73
2023/09/30 10:19:19;;;;;;;13.00;2.42;;;21.80;99.90;;;;;;5019837;28;104520;-74
2023/09/30 10:22:19;;;;;;;11.98;2.55;;;22.70;99.90;;;;;;5058263;28;20602;-73
2023/09/30 10:24:46;;;;;;;12.38;2.00;;;23.50;98.20;;;;;;5003762;28;171111;-74
2023/09/30 10:27:22;;;;;;;10.32;2.03;;;23.70;98.90;;;;;;5062679;28;20519;-73
2023/09/30 10:30:13;;;;;;;13.50;2.45;;;23.80;96.60;;;;;;5012597;28;135557;-74
2023/09/30 10:32:51;;;;;;;;;;;23.60;98.10;;;;;;5060808;28;20048;-73
2023/09/30 10:35:18;;;;;;;12.93;2.28;;;23.30;96.70;;;;;;4987534;28;93562;-74
2023/09/30 10:37:45;;;;;;;13.68;2.63;;;23.40;98.80;;;;;;5040415;28;20055;-75
2023/09/30 10:40:33;;;;;;;12.40;2.08;;;23.90;99.50;;;;;;5047489;28;111948;-75
2023/09/30 10:43:02;;;;;;;12.77;2.33;;;24.60;98.90;;;;;;5028802;28;20057;-75
2023/09/30 10:45:43;;;;;;;14.05;2.45;;;25.20;98.50;;;;;;5010075;28;211892;-74
2023/09/30 10:48:27;;;;;;;9.98;2.10;;;25.50;94.90;;;;;;5016460;28;122532;-75
2023/09/30 10:50:56;;;;;;;13.52;2.22;;;25.00;93.90;;;;;;5059262;28;20056;-73
2023/09/30 10:53:23;;;;;;;14.27;2.15;;;23.80;97.20;;;;;;5001139;28;210165;-73
2023/09/30 10:55:57;;;;;;;10.98;2.20;;;23.60;96.40;;;;;;5058165;28;20079;-75
2023/09/30 10:58:57;;;;;;;13.13;2.80;;;22.70;97.20;;;;;;5012054;28;179604;-74
2023/09/30 11:01:24;;;;;;;13.07;2.42;;;22.00;96.80;;;;;;5057266;28;20088;-74
2023/09/30 11:04:03;;;;;;;11.13;2.25;;;21.60;98.40;;;;;;5013390;28;192369;-75
2023/09/30 11:06:29;;;;;;;12.50;2.42;;;21.50;98.60;;;;;;5050226;28;20048;-74
2023/09/30 11:08:59;;;;;;;10.73;2.47;;;21.30;98.80;;;;;;4996832;28;195119;-74
2023/09/30 11:11:34;;;;;;;10.43;2.60;;;21.20;98.80;;;;;;5064287;28;20404;-73
2023/09/30 11:14:00;;;;;;;10.35;2.15;;;21.30;98.90;;;;;;5007392;28;224468;-74
2023/09/30 11:16:26;;;;;;;14.45;2.90;;;21.50;98.70;;;;;;5048109;28;20057;-73
2023/09/30 11:18:55;;;;;;;13.68;3.25;;;21.30;98.60;;;;;;5009067;28;65292;-74
2023/09/30 11:21:22;;;;;;;13.32;2.83;;;21.50;98.20;;;;;;5059534;28;20048;-75
2023/09/30 11:23:48;;;;;;;11.43;2.50;;;21.30;98.00;;;;;;5004144;28;243900;-73
2023/09/30 11:26:15;;;;;;;12.65;2.88;;;21.60;97.40;;;;;;5058966;28;20059;-73
2023/09/30 11:28:43;;;;;;;11.77;2.90;;;22.20;96.50;;;;;;5008628;28;20060;-74
2023/09/30 11:31:11;;;;;;;13.15;2.80;;;22.10;96.40;;;;;;5049058;28;20075;-73
2023/09/30 11:33:56;;;;;;;11.57;2.97;;;22.40;95.90;;;;;;5008092;28;161266;-74
2023/09/30 11:36:23;;;;;;;10.85;2.80;;;22.90;94.90;;;;;;5048030;28;20059;-74
2023/09/30 11:38:52;;;;;;;10.93;2.80;;;23.20;95.50;;;;;;5000161;28;105232;-75
2023/09/30 11:41:19;;;;;;;12.13;2.47;;;23.70;95.80;;;;;;5050629;28;20056;-74
2023/09/30 11:44:04;;;;;;;12.55;2.40;;;23.60;94.90;;;;;;5017358;28;56534;-75
2023/09/30 11:46:33;;;;;;;11.55;2.50;;;23.40;95.50;;;;;;5047079;28;20057;-75
2023/09/30 11:49:02;;;;;;;11.07;2.50;;;23.80;95.50;;;;;;5005237;28;159670;-74
2023/09/30 11:51:46;;;;;;;11.27;2.47;;;23.70;95.70;;;;;;5039233;28;20049;-74
2023/09/30 11:54:14;;;;;;;12.18;2.58;;;23.90;95.00;;;;;;4958883;28;119103;-76
2023/09/30 11:56:40;;;;;;;12.45;2.55;;;24.10;95.30;;;;;;5040082;28;20087;-74
2023/09/30 11:59:06;;;;;;;9.07;2.10;;;24.30;95.60;;;;;;5003096;28;88455;-76
2023/09/30 12:01:33;;;;;;;11.15;2.22;;;24.50;94.90;;;;;;5052867;28;20056;-75
2023/09/30 12:03:59;;;;;;;10.80;2.28;;;24.90;94.20;;;;;;5006385;28;125847;-73
2023/09/30 12:06:25;;;;;;;11.40;2.03;;;25.10;94.50;;;;;;5063437;28;20082;-73
2023/09/30 12:08:51;;;;;;;9.50;2.20;;;25.20;94.20;;;;;;5007311;28;95159;-75
2023/09/30 12:11:18;;;;;;;10.40;2.17;;;25.10;93.90;;;;;;5055997;28;20063;-74
2023/09/30 12:13:45;;;;;;;11.65;2.42;;;25.10;93.10;;;;;;5015344;28;126824;-74
2023/09/30 12:16:14;;;;;;;12.23;1.92;;;24.70;93.50;;;;;;5047467;28;20052;-74
2023/09/30 12:18:41;;;;;;;10.70;2.10;;;24.90;93.10;;;;;;5023964;28;90631;-73
2023/09/30 12:21:11;;;;;;;10.30;2.50;;;24.70;93.20;;;;;;5054434;28;20052;-74
2023/09/30 12:23:37;;;;;;;10.10;2.22;;;25.00;93.20;;;;;;5012888;28;205131;-75
2023/09/30 12:26:05;;;;;;;9.57;2.20;;;25.70;92.90;;;;;;5041069;28;20053;-76
2023/09/30 12:28:34;;;;;;;10.60;2.25;;;26.40;92.40;;;;;;5006723;28;207067;-74
2023/09/30 12:31:04;;;;;;;9.88;2.20;;;26.40;91.80;;;;;;5035560;28;20055;-74
2023/09/30 12:33:32;;;;;;;8.63;1.75;;;25.80;90.20;;;;;;5012937;28;107887;-74
2023/09/30 12:35:58;;;;;;;9.20;1.92;;;25.10;91.30;;;;;;5054268;28;20049;-74
2023/09/30 12:38:25;;;;;;;9.88;2.17;;;24.60;91.30;;;;;;5019347;28;127067;-75